Weather observations for the past three days for
De Ridder, Beauregard Parish Airport
Imperial (Metric)
Date Time (cdt) Wind (mph) Vis. (mi.) Weather Sky Cond. Temperature (ºF) Relative Humidity Wind Chill (°F) Heat Index (°F) Pressure Precipitation (in)
Air Dwpt 6 hour altimeter (in) sea level (mb) 1 hr 3 hr 6 hr
Max. Min.
06 07:35 Calm 8.00 NULL NULL 74.1 74.1 100% 29.86 0.0
06 07:15 Calm 7.00 NULL NULL 73.8 73.8 100% 29.85 0.0
06 06:55 SE 5 8.00 NULL NULL 73.8 73.8 100% 29.85 0.0
06 06:35 SE 5 9.00 NULL NULL 73.8 73.8 100% 29.84 0.0
06 06:15 S 3 10.00 NULL NULL 73.9 73.9 100% 29.84 0.0
06 05:55 S 5 10.00 NULL NULL 73.9 73.9 100% 29.83 0.0
06 05:35 S 6 10.00 NULL NULL 73.9 73.9 100% 29.83 0.0
06 05:15 S 7 10.00 NULL NULL 73.8 73.8 100% 29.83 0.0
06 04:55 S 6 10.00 NULL NULL 73.6 73.6 100% 29.83 0.0
06 04:35 SE 6 10.00 NULL NULL 73.4 73.4 100% 29.82 0.0
06 04:15 SE 5 10.00 NULL NULL 73.4 73.4 100% 29.82 0.0
06 03:55 SE 6 10.00 NULL NULL 73.6 73.6 100% 29.83 0.0
06 03:35 Calm 10.00 NULL NULL 73.6 73.6 100% 29.84 0.0
06 03:15 S 8 8.00 Light Rain NULL 74.1 74.1 100% 29.83 0.0
06 02:55 S 7 10.00 Light Rain NULL 74.3 73.9 99% 29.84 0.0
06 02:35 S 6 10.00 NULL NULL 74.5 73.6 97% 29.84 0.0
06 02:15 S 6 10.00 NULL NULL 74.7 73.8 97% 29.84 0.0
06 01:55 S 6 10.00 NULL NULL 74.7 73.6 96% 29.84 0.0
06 01:35 S 7 10.00 NULL NULL 74.7 73.6 96% 29.84 0.0
06 00:55 S 6 10.00 NULL NULL 74.8 73.8 96% 29.85 0.0
06 00:35 S 6 10.00 NULL NULL 74.8 73.8 96% 29.84 0.0
06 00:15 S 6 10.00 NULL NULL 75.2 73.8 95% 74 29.85 0.0
05 23:55 S 7 10.00 NULL NULL 75.2 73.6 95% 74 29.84 0.0
05 23:35 S 8 10.00 NULL NULL 75.4 73.6 94% 74 29.85 0.0 0.01
05 23:15 S 7 10.00 NULL NULL 75.4 73.6 94% 74 29.85 0.0 0.01
05 22:55 S 8 10.00 NULL NULL 75.6 73.8 94% 75 29.84 0.0
05 22:35 S 10 10.00 NULL NULL 75.6 73.8 94% 75 29.84 0.0
05 22:15 S 7 10.00 NULL NULL 75.7 73.9 94% 75 29.83 0.0
05 21:55 S 10 10.00 NULL NULL 75.7 73.9 94% 75 29.82 0.0
05 21:35 S 12 10.00 NULL NULL 75.9 73.8 93% 76 29.81 0.0
05 21:15 S 10 10.00 NULL NULL 76.1 73.9 93% 76 29.8 0.0
05 20:55 S 9 10.00 NULL NULL 76.3 73.8 92% 76 29.79 0.0
05 20:35 S 9 10.00 NULL NULL 76.5 73.9 92% 77 29.79 0.0
05 20:15 S 10 10.00 NULL NULL 76.8 73.9 91% 78 29.79 0.0
05 19:55 S 12 10.00 NULL NULL 77 73.8 90% 78 29.78 0.0
05 19:35 S 12 10.00 NULL NULL 77.2 74.1 90% 79 29.78 0.0
05 19:15 S 9 10.00 NULL NULL 77.5 74.1 89% 79 29.78 0.0
05 18:55 S 10 10.00 NULL NULL 77.7 74.3 89% 80 29.78 0.0
05 18:35 S 10 10.00 NULL NULL 78.1 74.3 88% 81 29.78 0.0
05 18:15 S 10 10.00 NULL NULL 78.4 74.1 87% 81 29.78 0.0
05 17:55 S 12 10.00 NULL NULL 78.8 74.1 86% 82 29.79 0.0
05 17:35 S 12 10.00 NULL NULL 79.2 74.1 85% 83 29.78 0.0 0.01
05 17:15 S 9 10.00 NULL NULL 79.3 73.9 84% 83 29.78 0.0
05 16:55 S 13 10.00 NULL NULL 79.2 73.6 83% 83 29.78 0.0
05 16:35 S 14 G 20 10.00 NULL NULL 79.2 73.8 84% 83 29.79 0.0
05 16:15 S 10 10.00 NULL NULL 78.8 73.8 85% 82 29.8 0.0
05 15:55 S 10 10.00 NULL NULL 78.6 73.8 85% 82 29.81 0.0
05 15:35 S 12 10.00 NULL NULL 78.8 73.9 85% 82 29.81 0.0
05 15:15 S 14 10.00 NULL NULL 79.3 73.4 82% 83 29.82 0.0
05 14:55 S 10 10.00 NULL NULL 78.8 73.6 84% 82 29.82 0.0
05 14:35 SW 15 10.00 NULL NULL 78.8 73.4 84% 82 29.82 0.0
05 14:15 S 12 10.00 NULL NULL 78.6 73.6 85% 82 29.83 0.0
05 13:55 S 13 10.00 NULL NULL 77.4 73 87% 79 29.83 0.0
05 13:35 S 10 10.00 NULL NULL 77.2 72.9 87% 79 29.83 0.0
05 13:15 S 13 10.00 NULL NULL 75.7 73.2 92% 75 29.84 0.0
05 12:55 S 12 10.00 NULL NULL 77.2 71.8 84% 79 29.84 0.0
05 12:35 S 12 10.00 NULL NULL 77.5 71.4 82% 79 29.84 0.0
05 12:15 S 14 10.00 NULL NULL 78.3 71.4 80% 81 29.84 0.0
05 11:55 S 10 10.00 NULL NULL 77.5 71.4 82% 79 29.84 0.0
05 11:35 S 12 10.00 NULL NULL 76.8 71.1 82% 78 29.84 0.0 0.01
05 11:15 S 13 10.00 NULL NULL 76.5 70.7 82% 78 29.85 0.0
05 10:55 S 13 10.00 NULL NULL 77.2 70.7 81% 79 29.84 0.0
05 10:35 S 14 10.00 NULL NULL 77.4 71.1 81% 79 29.84 0.0
05 10:15 S 12 10.00 NULL NULL 75.6 70.5 84% 76 29.84 0.0
05 09:55 S 12 10.00 NULL NULL 74.5 70.7 88% 29.85 0.0
05 09:35 S 9 10.00 NULL NULL 73.9 70.3 89% 29.85 0.0
05 09:15 S 8 10.00 NULL NULL 72.5 70.2 92% 29.85 0.0
05 08:55 S 10 10.00 NULL NULL 72.1 69.6 92% 29.84 0.0
05 08:35 S 8 10.00 NULL NULL 72 69.6 92% 29.84 0.0
05 08:15 S 8 10.00 NULL NULL 70.5 68.7 94% 29.83 0.0
05 07:55 S 7 10.00 NULL NULL 69.8 68.4 95% 29.84 0.0
05 07:35 S 8 10.00 NULL NULL 68.9 67.8 96% 29.84 0.0
05 07:15 SE 7 10.00 NULL NULL 68.2 67.3 97% 29.83 0.0
05 06:55 SE 7 10.00 NULL NULL 67.6 66.7 97% 29.82 0.0
05 06:35 SE 6 10.00 NULL NULL 67.1 66.2 97% 29.82 0.0
05 06:15 SE 7 10.00 NULL NULL 66.7 65.8 97% 29.82 0.0
05 05:55 SE 8 10.00 NULL NULL 66.6 65.7 97% 29.82 0.0
05 05:35 S 7 10.00 NULL NULL 66 65.5 98% 29.82 0.0
05 05:15 SE 6 10.00 NULL NULL 65.7 65.1 98% 29.83 0.0
05 04:55 SE 6 10.00 NULL NULL 65.1 64.8 99% 29.84 0.0
05 04:35 SE 5 10.00 NULL NULL 64.4 64.4 100% 29.84 0.0
05 04:15 SE 5 10.00 NULL NULL 64.4 64.4 100% 29.84 0.0
05 03:55 SE 5 10.00 NULL NULL 64.4 64.4 100% 29.84 0.0
05 03:35 SE 5 10.00 NULL NULL 64.2 64.2 100% 29.84 0.0 0.01
05 03:15 Calm 10.00 NULL NULL 64 63.9 99% 29.85 0.0 0.01
05 02:55 Vrbl 5 10.00 NULL NULL 64.2 63.9 99% 29.85 0.0 0.01
05 02:35 SE 3 10.00 NULL NULL 64.2 63.7 98% 29.84 0.0
05 02:15 SE 5 10.00 NULL NULL 64.4 63.5 97% 29.85 0.0
05 01:55 SE 5 10.00 NULL NULL 64.6 63.7 97% 29.85 0.0
05 01:35 SE 5 10.00 NULL NULL 64.8 63.7 96% 29.86 0.0
05 01:15 SE 3 10.00 NULL NULL 64.9 63.5 95% 29.87 0.0
05 00:55 S 5 10.00 NULL NULL 65.1 63.3 94% 29.87 0.0
05 00:35 SE 5 10.00 NULL NULL 65.3 63.1 93% 29.87 0.0
05 00:15 S 6 10.00 NULL NULL 65.7 63.1 92% 29.88 0.0
04 23:55 SE 5 10.00 NULL NULL 66 63 90% 29.89 0.0
04 23:35 S 6 10.00 NULL NULL 66.4 62.8 88% 29.89 0.0
04 23:15 SE 7 10.00 NULL NULL 66.4 62.4 87% 29.89 0.0
04 22:55 SE 7 10.00 NULL NULL 66.7 62.4 86% 29.89 0.0
04 22:35 S 7 10.00 NULL NULL 67.1 61.9 83% 29.89 0.0
04 22:15 S 7 10.00 NULL NULL 67.6 61.7 81% 29.89 0.0
04 21:55 S 7 10.00 NULL NULL 68 61.5 80% 29.89 0.0
04 21:35 SE 6 10.00 NULL NULL 68.2 61.2 78% 29.88 0.0
04 21:15 S 8 10.00 NULL NULL 69.1 60.4 74% 29.89 0.0
04 20:55 S 8 10.00 NULL NULL 70 60.1 71% 29.87 0.0
04 20:35 S 10 10.00 NULL NULL 70.7 59.7 68% 29.87 0.0
04 20:15 S 10 10.00 NULL NULL 71.2 59.5 67% 29.87 0.0
04 19:55 S 12 10.00 NULL NULL 72.1 59.2 64% 29.87 0.0
04 19:35 S 13 10.00 NULL NULL 73.2 58.8 61% 29.87 0.0 0.01
04 19:15 S 12 10.00 NULL NULL 74.5 58.8 58% 29.87 0.0 0.01
04 18:55 S 13 10.00 NULL NULL 75.2 58.5 56% 78 29.88 0.0
04 18:35 S 9 10.00 NULL NULL 75.7 58.5 55% 78 29.88 0.0
04 18:15 S 13 10.00 NULL NULL 77 57.7 52% 79 29.89 0.0
04 17:55 S 9 10.00 NULL NULL 77.5 56.8 49% 79 29.89 0.0
04 17:35 S 13 10.00 NULL NULL 77.9 55.9 47% 79 29.9 0.0
04 17:15 S 13 10.00 NULL NULL 78.3 55.4 45% 79 29.9 0.0
04 16:55 S 9 10.00 NULL NULL 79.2 55 43% 80 29.9 0.0
04 16:35 S 13 10.00 NULL NULL 79.3 54.1 42% 80 29.92 0.0
04 16:15 S 12 10.00 NULL NULL 78.6 54.1 43% 79 29.92 0.0
04 15:55 S 14 10.00 NULL NULL 79.3 52.9 40% 79 29.93 0.0
04 15:35 S 12 10.00 NULL NULL 79.7 52.7 39% 80 29.94 0.0
04 15:15 S 14 10.00 NULL NULL 79.5 52.9 40% 80 29.94 0.0
04 14:55 S 13 10.00 NULL NULL 79 53.4 41% 79 29.95 0.0
04 14:35 S 12 G 22 10.00 NULL NULL 79.3 51.8 38% 79 29.97 0.0
04 14:15 S 14 G 20 10.00 NULL NULL 78.8 52.7 40% 79 29.97 0.0
04 13:55 S 15 10.00 NULL NULL 77.9 51.6 40% 79 29.98 0.0
04 13:35 S 13 G 20 10.00 NULL NULL 78.3 51.8 40% 79 29.99 0.0
04 13:15 S 16 G 21 10.00 NULL NULL 78.1 52.7 41% 79 29.99 0.0
04 12:55 SW 14 10.00 NULL NULL 77.9 52.2 41% 79 29.99 0.0
04 12:35 S 14 10.00 NULL NULL 77 52 42% 78 30 0.0
04 12:15 S 9 10.00 NULL NULL 75.7 50.9 42% 78 30.01 0.0
04 11:55 S 13 G 22 10.00 NULL NULL 75.7 50.4 41% 78 30.02 0.0
04 11:35 S 15 10.00 NULL NULL 75.4 49.3 40% 78 30.03 0.0
04 11:15 S 14 10.00 NULL NULL 75.2 49.8 41% 78 30.03 0.0
04 10:55 S 14 10.00 NULL NULL 73.8 46.9 39% 30.04 0.0
04 10:35 SE 13 10.00 NULL NULL 74.1 45.5 36% 30.04 0.0 0.01
04 10:15 S 10 G 20 10.00 NULL NULL 73.4 48.7 42% 30.03 0.0 0.01
04 09:55 S 9 10.00 NULL NULL 71.2 51.1 49% 30.05 0.0
04 09:35 S 10 10.00 NULL NULL 70.3 51.6 52% 30.04 0.0
04 09:15 S 7 10.00 NULL NULL 68.9 53.6 58% 30.04 0.0
04 08:55 S 5 10.00 NULL NULL 67.1 55.9 68% 30.05 0.0
04 08:35 S 5 10.00 NULL NULL 64.6 57 77% 30.04 0.0
04 08:15 S 3 10.00 NULL NULL 62.1 56.5 82% 30.04 0.0
04 07:55 Calm 10.00 NULL NULL 58.6 55.6 90% 30.04 0.0
04 07:35 Calm 10.00 NULL NULL 55 55 100% 30.04 0.0
04 07:15 Calm 10.00 NULL NULL 53.1 53.1 100% 30.04 0.0
04 06:55 Calm 8.00 NULL NULL 51.4 51.4 100% 30.04 0.0
04 06:35 Calm 8.00 NULL NULL 51.1 51.1 100% 30.04 0.0
04 06:15 Calm 9.00 NULL NULL 51.3 51.3 100% 30.03 0.0
04 05:55 Calm 10.00 NULL NULL 51.3 51.3 100% 30.02 0.0
04 05:35 Calm 10.00 NULL NULL 52 52 100% 30.03 0.0
04 05:15 Calm 10.00 NULL NULL 52.2 52.2 100% 30.02 0.0
04 04:55 Calm 10.00 NULL NULL 52.5 52.5 100% 30.03 0.0
04 04:35 Calm 10.00 NULL NULL 52.5 52.5 100% 30.02 0.0
04 04:15 Calm 10.00 NULL NULL 52.9 52.5 99% 30.03 0.0
04 03:55 Calm 10.00 NULL NULL 53.4 52.9 98% 30.03 0.0
04 03:35 Calm 10.00 NULL NULL 53.6 53.1 98% 30.03 0.0 0.01
04 03:15 Calm 9.00 NULL NULL 53.6 53.1 98% 30.04 0.0 0.01
04 02:55 Calm 10.00 NULL NULL 53.8 53.6 99% 30.05 0.0
04 02:35 Calm 10.00 NULL NULL 54 53.2 97% 30.05 0.0
04 02:15 Calm 9.00 NULL NULL 54.3 53.6 97% 30.06 0.0
04 01:55 Calm 10.00 NULL NULL 56.5 52.2 86% 30.06 0.0
04 01:35 Calm 9.00 NULL NULL 55.8 53.1 91% 30.07 0.0
04 01:15 Calm 9.00 NULL NULL 57.2 52 83% 30.08 0.0
04 00:55 Calm 9.00 NULL NULL 60.1 49.5 68% 30.08 0.0
04 00:35 Calm 9.00 NULL NULL 60.1 50 70% 30.08 0.0
04 00:15 SW 3 9.00 NULL NULL 59.2 51.6 76% 30.09 0.0
03 23:55 Calm 9.00 NULL NULL 59.2 52.5 79% 30.09 0.0
03 23:35 Calm 8.00 NULL NULL 60.3 50.4 70% 30.09 0.0
03 23:15 Calm 6.00 Haze NULL 62.1 49.3 63% 30.09 0.0
03 22:55 S 3 6.00 Haze NULL 62.4 49.5 63% 30.09 0.0
03 22:35 SW 5 6.00 Haze NULL 62.8 49.5 62% 30.09 0.0
03 22:15 S 5 5.00 Haze NULL 63 50.2 63% 30.09 0.0
03 21:55 S 7 6.00 Haze NULL 63 50.7 65% 30.09 0.0
03 21:35 S 6 6.00 Haze NULL 64 51.1 63% 30.08 0.0
03 21:15 S 7 6.00 Haze NULL 65.7 50.4 58% 30.08 0.0
03 20:55 S 5 6.00 Haze NULL 66.4 50.9 58% 30.07 0.0
03 20:35 S 5 6.00 Haze NULL 64.9 54.9 70% 30.06 0.0
03 20:15 Calm 5.00 Haze NULL 67.8 53.6 61% 30.06 0.0
03 19:55 S 5 4.00 Haze NULL 69.3 50.9 52% 30.05 0.0
03 19:35 S 3 5.00 Haze NULL 74.7 45.5 35% 30.05 0.0
03 19:15 S 5 7.00 NULL NULL 75.9 44.2 32% 77 30.05 0.0
03 18:55 S 3 7.00 NULL NULL 77 43.7 31% 78 30.05 0.0
03 18:35 S 7 8.00 NULL NULL 78.4 41.5 27% 78 30.06 0.0
03 18:15 Calm 8.00 NULL NULL 78.1 39.6 25% 78 30.06 0.0
03 17:55 W 3 8.00 NULL NULL 78.3 39.2 25% 78 30.06 0.0
03 17:35 S 5 7.00 NULL NULL 79 41 26% 78 30.07 0.0
03 17:15 Calm 8.00 NULL NULL 78.1 40.8 26% 78 30.07 0.0
03 16:55 NE 5 8.00 NULL NULL 78.4 41.4 27% 78 30.08 0.0
03 16:35 Calm 8.00 NULL NULL 78.3 41 26% 78 30.09 0.0
03 16:15 W 3 8.00 NULL NULL 78.8 40.8 26% 78 30.1 0.0
03 15:55 Calm 8.00 NULL NULL 78.6 40.5 26% 78 30.11 0.0
03 15:35 Calm 9.00 NULL NULL 78.1 41.7 27% 78 30.12 0.0
03 15:15 W 8 10.00 NULL NULL 78.4 41.7 27% 78 30.13 0.0
03 14:55 Vrbl 3 10.00 NULL NULL 77.4 42.3 29% 78 30.14 0.0
03 14:35 Calm 10.00 NULL NULL 77.4 42.3 29% 78 30.15 0.0
03 13:55 SW 6 10.00 NULL NULL 77 41.5 28% 78 30.16 0.0
03 13:35 Vrbl 5 10.00 NULL NULL 76.8 40.1 27% 77 30.17 0.0
03 13:15 Calm 10.00 NULL NULL 75.4 42.4 31% 77 30.18 0.0
03 12:55 Calm 10.00 NULL NULL 75.2 41.5 30% 77 30.19 0.0
03 12:35 N 5 10.00 NULL NULL 75.7 42.1 30% 77 30.2 0.0 0.01
03 12:15 Vrbl 5 10.00 NULL NULL 75.2 40.8 29% 77 30.2 0.0
03 11:55 Vrbl 5 10.00 NULL NULL 74.8 41.5 30% 30.21 0.0
03 11:35 S 5 10.00 NULL NULL 74.8 43.7 33% 30.21 0.0
03 11:15 Calm 10.00 NULL NULL 73 43 34% 30.21 0.0
03 10:55 Calm 10.00 NULL NULL 72.9 45.5 38% 30.21 0.0
03 10:35 Calm 10.00 NULL NULL 71.4 45.7 40% 30.22 0.0 0.01
03 10:15 S 7 10.00 NULL NULL 70.7 45.9 41% 30.21 0.0 0.01
03 09:55 S 8 10.00 NULL NULL 69.8 45.9 42% 30.22 0.0
03 09:35 Vrbl 5 10.00 NULL NULL 68.2 48.4 49% 30.21 0.0
03 09:15 SW 6 10.00 NULL NULL 65.8 48.7 54% 30.21 0.0
03 08:55 Calm 10.00 NULL NULL 63.7 51.1 64% 30.21 0.0
03 08:35 Calm 10.00 NULL NULL 61.9 52.3 71% 30.22 0.0
03 08:15 Calm 10.00 NULL NULL 58.3 55.9 92% 30.21 0.0
03 07:55 Calm 10.00 NULL NULL 54.9 54.7 99% 30.21 0.0
Date Time (cdt) Wind (mph) Vis. (mi.) Weather Sky Cond. Air Dwpt Max. Min. Relative Humidity Wind Chill (°F) Heat Index (°F) altimeter (in) sea level (mb) 1 hr 3 hr 6 hr
6 hour
Temperature (ºF) Pressure Precipitation (in)